Time;durP1;ratioP1;P1;durP2;ratioP2;P2;SDS_P1;SDS_P2;PMS_P1;PMS_P2;Temp;Humidity;BMP_temperature;BMP_pressure;BME280_temperature;BME280_humidity;BME280_pressure;Samples;Min_cycle;Max_cycle;Signal;HPM_P1;HPM_P2
2023/04/01 00:01:16;;;;;;;28.10;17.10;;;;;;;4.70;71.75;100107.02;107676;1250;110912;-68
2023/04/01 00:03:45;;;;;;;26.10;15.80;;;;;;;4.72;71.46;100098.20;107573;1250;108586;-70
2023/04/01 00:06:16;;;;;;;34.90;17.10;;;;;;;4.73;71.52;100096.74;107635;1252;109541;-69
2023/04/01 00:08:46;;;;;;;35.90;17.90;;;;;;;4.71;71.62;100096.84;107669;1253;96473;-70
2023/04/01 00:11:15;;;;;;;35.90;18.10;;;;;;;4.70;71.57;100092.67;107560;1250;96977;-70
2023/04/01 00:13:44;;;;;;;36.60;18.20;;;;;;;4.66;71.45;100087.96;107666;1252;109384;-71
2023/04/01 00:16:13;;;;;;;34.50;18.30;;;;;;;4.62;71.22;100083.36;107566;1251;110005;-69
2023/04/01 00:18:50;;;;;;;36.30;18.50;;;;;;;4.54;71.09;100081.02;107749;1248;108755;-70
2023/04/01 00:21:20;;;;;;;42.10;18.40;;;;;;;4.48;71.21;100081.13;107729;1250;96468;-69
2023/04/01 00:23:50;;;;;;;33.20;18.00;;;;;;;4.42;71.12;100077.15;107636;1251;97012;-70
2023/04/01 00:26:20;;;;;;;35.90;17.30;;;;;;;4.37;71.21;100077.31;107587;1251;108744;-71
2023/04/01 00:28:49;;;;;;;41.10;17.70;;;;;;;4.32;71.40;100077.73;107590;1250;109024;-73
2023/04/01 00:31:18;;;;;;;41.50;18.20;;;;;;;4.28;71.71;100072.30;107517;1250;108242;-73
2023/04/01 00:33:47;;;;;;;29.40;17.30;;;;;;;4.22;71.62;100065.96;107626;1252;96467;-70
2023/04/01 00:36:21;;;;;;;29.30;15.60;;;;;;;4.19;71.99;100063.56;107687;1250;96468;-69
2023/04/01 00:38:50;;;;;;;26.70;14.90;;;;;;;4.21;72.13;100063.39;107559;1250;109837;-71
2023/04/01 00:41:20;;;;;;;27.00;14.60;;;;;;;4.25;72.33;100064.38;107486;1250;110428;-68
2023/04/01 00:43:51;;;;;;;24.50;15.80;;;;;;;4.29;72.75;100063.69;107650;1253;106829;-70
2023/04/01 00:46:20;;;;;;;21.70;13.50;;;;;;;4.35;72.86;100064.70;107715;1250;96471;-70
2023/04/01 00:48:52;;;;;;;28.20;14.20;;;;;;;4.42;73.36;100064.92;107712;1250;96472;-71
2023/04/01 00:51:27;;;;;;;20.00;13.60;;;;;;;4.50;73.56;100061.11;107602;1251;110296;-70
2023/04/01 00:53:58;;;;;;;21.10;12.30;;;;;;;4.58;74.09;100052.54;107710;1250;108863;-69
2023/04/01 00:56:32;;;;;;;21.90;13.70;;;;;;;4.62;74.54;100049.05;107664;1251;107643;-70
2023/04/01 00:59:12;;;;;;;21.10;12.70;;;;;;;4.61;75.32;100045.55;107706;1250;96569;-70
2023/04/01 01:01:41;;;;;;;21.90;12.30;;;;;;;4.57;76.07;100046.23;107497;1250;97013;-69
2023/04/01 01:04:32;;;;;;;23.10;14.20;;;;;;;4.52;75.29;100039.10;107742;1250;109557;-69
2023/04/01 01:07:03;;;;;;;22.90;11.80;;;;;;;4.52;75.12;100033.44;107668;1251;107713;-70
2023/04/01 01:09:58;;;;;;;21.00;12.00;;;;;;;4.51;75.25;100034.39;107601;1250;108228;-70
2023/04/01 01:12:39;;;;;;;14.90;11.00;;;;;;;4.54;75.35;100035.91;107681;1248;96464;-69
2023/04/01 01:15:26;;;;;;;20.00;12.40;;;;;;;4.60;75.50;100037.08;107640;1251;96995;-70
2023/04/01 01:18:01;;;;;;;22.60;11.20;;;;;;;4.67;75.43;100030.39;107724;1250;110361;-70
2023/04/01 01:21:19;;;;;;;17.20;11.00;;;;;;;4.70;75.43;100024.66;107579;1254;109036;-70
2023/04/01 01:24:13;;;;;;;18.50;10.90;;;;;;;4.73;75.10;100016.11;107461;1250;108609;-71
2023/04/01 01:26:48;;;;;;;17.20;11.70;;;;;;;4.69;74.97;100017.92;107699;1250;96472;-69
2023/04/01 01:29:50;;;;;;;13.30;10.10;;;;;;;4.72;75.06;100009.05;107644;1250;96353;-68
2023/04/01 01:32:39;;;;;;;16.30;11.00;;;;;;;4.79;75.30;100005.27;107672;1250;111052;-69
2023/04/01 01:35:53;;;;;;;15.00;10.70;;;;;;;4.85;75.30;100001.44;107525;1253;110312;-70
2023/04/01 01:38:26;;;;;;;19.50;10.30;;;;;;;4.88;75.39;99997.69;107600;1253;108194;-73
2023/04/01 01:41:02;;;;;;;16.00;10.70;;;;;;;4.91;75.27;100002.80;107660;1251;96542;-71
2023/04/01 01:43:36;;;;;;;16.50;9.90;;;;;;;4.91;74.81;100004.91;107662;1251;97260;-69
2023/04/01 01:46:13;;;;;;;15.70;9.80;;;;;;;4.89;74.72;100001.34;107733;1251;109905;-70
2023/04/01 01:48:45;;;;;;;13.90;10.20;;;;;;;4.87;74.72;99991.39;107598;1250;109782;-68
2023/04/01 01:51:14;;;;;;;16.70;10.60;;;;;;;4.86;74.33;99995.88;107569;1250;107787;-69
2023/04/01 01:53:43;;;;;;;16.40;10.70;;;;;;;4.86;74.22;99999.26;107554;1250;96556;-71
2023/04/01 01:56:15;;;;;;;17.80;10.50;;;;;;;4.82;74.39;100006.84;107550;1250;97096;-70
2023/04/01 01:58:50;;;;;;;17.50;11.60;;;;;;;4.81;74.35;99997.90;107754;1253;109841;-70
2023/04/01 02:01:26;;;;;;;16.20;10.60;;;;;;;4.76;73.95;99989.86;107714;1251;109760;-70
2023/04/01 02:03:58;;;;;;;16.20;11.30;;;;;;;4.65;73.57;99988.92;107696;1250;108066;-69
2023/04/01 02:06:30;;;;;;;19.90;11.20;;;;;;;4.58;73.32;99984.90;107691;1250;96545;-69
2023/04/01 02:09:03;;;;;;;18.20;11.40;;;;;;;4.43;73.41;99979.06;107692;1250;97383;-68
2023/04/01 02:11:42;;;;;;;17.40;11.50;;;;;;;4.32;73.60;99979.00;107574;1250;109635;-69
2023/04/01 02:14:16;;;;;;;24.50;12.20;;;;;;;4.23;73.43;99981.78;107755;1249;110124;-70
2023/04/01 02:16:59;;;;;;;;;;;;;;;4.17;73.77;99982.27;107629;1253;107162;-69
2023/04/01 02:19:38;;;;;;;30.10;12.20;;;;;;;4.08;73.98;99983.80;107605;1253;96489;-70
2023/04/01 02:22:14;;;;;;;21.70;13.20;;;;;;;3.97;74.03;99983.34;107655;1252;96498;-69
2023/04/01 02:24:45;;;;;;;22.50;13.00;;;;;;;3.91;74.08;99981.48;107640;1257;110181;-69
2023/04/01 02:27:14;;;;;;;21.00;13.10;;;;;;;3.86;74.22;99970.00;107725;1255;110019;-69
2023/04/01 02:29:42;;;;;;;22.60;13.40;;;;;;;3.81;74.23;99974.58;107691;1251;108940;-69
2023/04/01 02:32:13;;;;;;;20.50;13.30;;;;;;;3.77;74.30;99974.34;107628;1250;96501;-67
2023/04/01 02:34:43;;;;;;;21.90;13.50;;;;;;;3.75;74.27;99969.88;107582;1254;96462;-70
2023/04/01 02:37:12;;;;;;;16.50;12.50;;;;;;;3.72;74.21;99968.15;107642;1250;110874;-70
2023/04/01 02:39:42;;;;;;;18.00;12.50;;;;;;;3.71;74.44;99964.13;107569;1250;109035;-69
2023/04/01 02:42:10;;;;;;;19.60;12.60;;;;;;;3.72;74.81;99962.10;107640;1250;107841;-68
2023/04/01 02:44:40;;;;;;;17.00;11.70;;;;;;;3.73;75.20;99961.86;107503;1250;96472;-71
2023/04/01 02:47:09;;;;;;;15.10;11.20;;;;;;;3.74;75.18;99962.63;107667;1250;97025;-69
2023/04/01 02:49:38;;;;;;;19.40;12.10;;;;;;;3.79;75.30;99963.21;107528;1250;109690;-69
2023/04/01 02:52:07;;;;;;;17.60;12.10;;;;;;;3.84;75.73;99956.83;107721;1251;108754;-68
2023/04/01 02:54:35;;;;;;;17.30;11.90;;;;;;;3.88;75.75;99952.05;107506;1253;108239;-70
2023/04/01 02:57:04;;;;;;;17.60;11.20;;;;;;;3.94;75.95;99946.52;107744;1250;96553;-69
2023/04/01 02:59:32;;;;;;;19.20;10.90;;;;;;;3.98;75.95;99942.30;107543;1251;97016;-70
2023/04/01 03:02:01;;;;;;;25.90;11.50;;;;;;;4.04;76.13;99937.44;107616;1251;110735;-70
2023/04/01 03:04:29;;;;;;;21.00;11.50;;;;;;;4.10;76.13;99933.45;107674;1251;109126;-69
2023/04/01 03:06:58;;;;;;;21.30;12.20;;;;;;;4.14;76.19;99935.12;107549;1253;107862;-70
2023/04/01 03:09:26;;;;;;;19.40;11.80;;;;;;;4.18;75.94;99934.09;107654;1250;96446;-68
2023/04/01 03:11:55;;;;;;;22.60;11.40;;;;;;;4.23;76.34;99934.36;107627;1250;96437;-70
2023/04/01 03:14:24;;;;;;;17.20;11.90;;;;;;;4.31;76.33;99935.75;107675;1252;110400;-68
2023/04/01 03:16:52;;;;;;;21.80;11.30;;;;;;;4.37;76.23;99932.48;107591;1250;110823;-67
2023/04/01 03:19:21;;;;;;;18.90;10.90;;;;;;;4.43;76.01;99934.36;107653;1252;108634;-69
2023/04/01 03:21:49;;;;;;;18.90;12.50;;;;;;;4.49;76.01;99929.65;107563;1254;96378;-70
2023/04/01 03:24:18;;;;;;;21.80;11.20;;;;;;;4.53;76.03;99928.77;107621;1251;97017;-70
2023/04/01 03:26:48;;;;;;;20.40;11.80;;;;;;;4.57;76.04;99923.56;107656;1251;109896;-70
2023/04/01 03:29:17;;;;;;;20.30;11.20;;;;;;;4.61;75.92;99922.50;107684;1252;109815;-71
2023/04/01 03:31:45;;;;;;;15.00;11.20;;;;;;;4.65;75.81;99923.45;107626;1253;107999;-70
2023/04/01 03:34:13;;;;;;;18.90;10.60;;;;;;;4.65;75.42;99921.98;107626;1256;96396;-70
2023/04/01 03:36:43;;;;;;;15.60;10.30;;;;;;;4.65;75.46;99919.00;107686;1251;97016;-69
2023/04/01 03:39:12;;;;;;;21.40;10.20;;;;;;;4.65;75.12;99915.45;107596;1250;110660;-71
2023/04/01 03:41:41;;;;;;;21.50;11.30;;;;;;;4.66;75.20;99918.22;107644;1250;109980;-70
2023/04/01 03:44:10;;;;;;;28.60;13.10;;;;;;;4.65;75.24;99918.95;107573;1251;108468;-72
2023/04/01 03:46:41;;;;;;;18.30;13.10;;;;;;;4.66;75.18;99916.73;107716;1250;96463;-72
2023/04/01 03:49:11;;;;;;;23.30;13.30;;;;;;;4.69;75.52;99911.73;107558;1250;97003;-70
2023/04/01 03:51:43;;;;;;;26.00;14.10;;;;;;;4.71;75.04;99909.81;107586;1251;109889;-70
2023/04/01 03:54:12;;;;;;;28.00;16.60;;;;;;;4.68;74.69;99904.70;107605;1250;109040;-70
2023/04/01 03:56:41;;;;;;;30.10;15.90;;;;;;;4.67;74.61;99904.10;107761;1250;107864;-70
2023/04/01 03:59:09;;;;;;;26.20;14.70;;;;;;;4.65;74.70;99901.20;107760;1251;96475;-68
2023/04/01 04:01:38;;;;;;;27.80;16.20;;;;;;;4.63;74.79;99899.23;107579;1253;97034;-69
2023/04/01 04:04:07;;;;;;;25.20;16.40;;;;;;;4.61;74.98;99899.80;107551;1250;110824;-69
2023/04/01 04:06:36;;;;;;;28.30;16.40;;;;;;;4.58;74.93;99897.34;107721;1255;109656;-69
2023/04/01 04:09:04;;;;;;;26.90;14.90;;;;;;;4.55;75.08;99899.12;107685;1253;107279;-70
2023/04/01 04:11:33;;;;;;;24.10;15.80;;;;;;;4.54;75.09;99897.77;107616;1253;96559;-70
2023/04/01 04:14:03;;;;;;;22.50;14.50;;;;;;;4.54;75.16;99893.56;107810;1250;97051;-69
2023/04/01 04:16:36;;;;;;;25.20;14.40;;;;;;;4.54;75.37;99892.81;107670;1253;109911;-68
2023/04/01 04:19:05;;;;;;;25.20;15.30;;;;;;;4.55;75.19;99887.95;107689;1250;109229;-69
2023/04/01 04:21:34;;;;;;;21.40;13.90;;;;;;;4.56;75.16;99881.88;107578;1251;107784;-70
2023/04/01 04:24:03;;;;;;;28.20;14.60;;;;;;;4.57;75.42;99883.58;107663;1250;96459;-70
2023/04/01 04:26:49;;;;;;;17.40;14.20;;;;;;;4.58;75.53;99873.73;107702;1250;96465;-72
2023/04/01 04:29:17;;;;;;;23.50;14.40;;;;;;;4.61;75.41;99879.30;107584;1250;110376;-69
2023/04/01 04:31:45;;;;;;;22.40;13.60;;;;;;;4.64;75.79;99883.36;107796;1251;110044;-69
2023/04/01 04:34:14;;;;;;;20.70;12.80;;;;;;;4.69;76.20;99880.15;107525;1251;107941;-68
2023/04/01 04:36:43;;;;;;;24.50;12.80;;;;;;;4.75;76.65;99885.89;107718;1250;96622;-68
2023/04/01 04:39:12;;;;;;;19.40;12.60;;;;;;;4.83;76.96;99882.96;107620;1254;96555;-68
2023/04/01 04:41:47;;;;;;;17.20;12.50;;;;;;;4.91;76.85;99875.21;107687;1252;110109;-67
2023/04/01 04:44:35;;;;;;;19.90;13.40;;;;;;;5.03;77.20;99876.19;107474;1251;108992;-68
2023/04/01 04:47:04;;;;;;;30.40;14.90;;;;;;;5.18;77.60;99874.84;107653;1251;108675;-69
2023/04/01 04:49:33;;;;;;;26.00;13.40;;;;;;;5.33;78.28;99862.64;107641;1251;96565;-67
2023/04/01 04:52:05;;;;;;;23.30;12.80;;;;;;;5.44;78.77;99866.91;107667;1251;97033;-69
2023/04/01 04:54:34;;;;;;;18.00;12.00;;;;;;;5.51;79.57;99863.02;107645;1256;110376;-69
2023/04/01 04:57:04;;;;;;;21.70;11.10;;;;;;;5.56;79.40;99865.17;107628;1253;109023;-68
2023/04/01 04:59:38;;;;;;;18.00;10.40;;;;;;;5.64;79.79;99866.34;107599;1251;108517;-68
2023/04/01 05:02:11;;;;;;;16.10;11.20;;;;;;;5.72;80.13;99865.17;107664;1251;96459;-69
2023/04/01 05:04:40;;;;;;;18.70;11.10;;;;;;;5.81;79.73;99870.09;107417;1253;96997;-69
2023/04/01 05:07:10;;;;;;;22.30;10.90;;;;;;;5.89;80.15;99869.45;107546;1254;110461;-68
2023/04/01 05:09:39;;;;;;;18.70;11.30;;;;;;;5.93;80.35;99873.50;107610;1254;109068;-70
2023/04/01 05:12:09;;;;;;;17.50;10.70;;;;;;;6.02;79.94;99871.43;107697;1254;107642;-72
2023/04/01 05:14:54;;;;;;;13.30;9.70;;;;;;;6.10;79.94;99872.30;107729;1254;96458;-70
2023/04/01 05:17:23;;;;;;;15.60;10.00;;;;;;;6.22;79.85;99872.62;107532;1254;96997;-69
2023/04/01 05:19:51;;;;;;;16.20;10.80;;;;;;;6.34;79.75;99872.27;107715;1255;109892;-69
2023/04/01 05:22:20;;;;;;;16.90;10.30;;;;;;;6.46;79.21;99876.48;107606;1251;109877;-70
2023/04/01 05:24:49;;;;;;;18.00;12.20;;;;;;;6.54;79.17;99872.14;107579;1252;107672;-70
2023/04/01 05:27:17;;;;;;;19.50;12.40;;;;;;;6.66;79.32;99870.50;107638;1254;96506;-69
2023/04/01 05:29:48;;;;;;;26.00;14.70;;;;;;;6.72;79.15;99877.58;107603;1256;96478;-70
2023/04/01 05:32:39;;;;;;;21.90;12.60;;;;;;;6.81;79.02;99869.20;107610;1251;110470;-70
2023/04/01 05:35:10;;;;;;;30.70;15.10;;;;;;;6.85;78.63;99862.91;107696;1251;108505;-69
2023/04/01 05:37:40;;;;;;;24.00;14.40;;;;;;;6.86;78.43;99859.77;107578;1256;106007;-70
2023/04/01 05:40:09;;;;;;;40.90;16.50;;;;;;;6.90;78.38;99858.27;107567;1251;96475;-69
2023/04/01 05:42:38;;;;;;;27.50;16.70;;;;;;;6.95;77.98;99859.42;107691;1251;96416;-69
2023/04/01 05:45:08;;;;;;;23.90;14.70;;;;;;;6.97;78.04;99853.52;107597;1251;110458;-69
2023/04/01 05:47:56;;;;;;;29.60;13.20;;;;;;;7.00;77.69;99852.70;107620;1256;109470;-69
2023/04/01 05:50:24;;;;;;;21.10;13.50;;;;;;;7.03;77.82;99852.45;107692;1256;107380;-69
2023/04/01 05:52:53;;;;;;;28.30;15.30;;;;;;;7.03;77.75;99854.62;107694;1253;97136;-70
2023/04/01 05:55:22;;;;;;;23.80;13.60;;;;;;;7.02;77.73;99846.14;107753;1256;96430;-71
2023/04/01 05:57:51;;;;;;;23.40;13.60;;;;;;;7.07;77.61;99843.73;107703;1253;108381;-71
2023/04/01 06:00:20;;;;;;;20.80;13.50;;;;;;;7.15;77.79;99844.04;107667;1251;110133;-70
2023/04/01 06:02:51;;;;;;;21.10;13.40;;;;;;;7.24;77.65;99840.05;107657;1251;107689;-69
2023/04/01 06:05:25;;;;;;;18.80;14.10;;;;;;;7.32;77.61;99838.27;107569;1251;96472;-69
2023/04/01 06:07:59;;;;;;;20.70;13.30;;;;;;;7.40;77.57;99834.36;107706;1251;97146;-70
2023/04/01 06:10:43;;;;;;;21.00;13.20;;;;;;;7.49;77.71;99837.48;107505;1257;112171;-70
2023/04/01 06:13:51;;;;;;;20.70;13.30;;;;;;;7.63;77.50;99837.15;107595;1251;110346;-71
2023/04/01 06:16:55;;;;;;;16.80;11.80;;;;;;;7.78;77.62;99836.27;107704;1251;108993;-69
2023/04/01 06:19:39;;;;;;;19.80;12.80;;;;;;;7.94;77.93;99828.80;107627;1256;96500;-68
2023/04/01 06:22:33;;;;;;;24.70;11.70;;;;;;;8.08;78.34;99828.70;107549;1251;96356;-70
2023/04/01 06:25:30;;;;;;;17.90;10.90;;;;;;;8.27;78.36;99825.52;107714;1250;109874;-70
2023/04/01 06:28:38;;;;;;;23.70;11.20;;;;;;;8.50;78.05;99823.06;107805;1251;109103;-71
2023/04/01 06:31:20;;;;;;;20.00;12.00;;;;;;;8.71;77.87;99826.04;107683;1250;107627;-71
2023/04/01 06:33:56;;;;;;;22.70;11.90;;;;;;;8.91;77.63;99831.97;107720;1257;96466;-70
2023/04/01 06:36:25;;;;;;;18.10;12.30;;;;;;;9.16;77.54;99830.30;107664;1251;97108;-71
2023/04/01 06:39:18;;;;;;;20.20;11.10;;;;;;;9.35;76.97;99830.80;107741;1256;109970;-73
2023/04/01 06:41:55;;;;;;;18.70;12.00;;;;;;;9.53;76.48;99824.02;107698;1251;109059;-70
2023/04/01 06:44:44;;;;;;;24.60;12.90;;;;;;;9.65;75.95;99828.43;107715;1251;107853;-69
2023/04/01 06:48:09;;;;;;;17.00;11.50;;;;;;;9.79;75.75;99825.20;107562;1251;96552;-71
2023/04/01 06:51:22;;;;;;;18.50;12.20;;;;;;;9.94;75.45;99820.10;107406;1250;96517;-71
2023/04/01 06:54:25;;;;;;;20.50;13.10;;;;;;;10.10;75.55;99814.96;107577;1251;110363;-72
2023/04/01 06:57:43;;;;;;;22.80;13.10;;;;;;;10.23;75.44;99818.08;107622;1251;109294;-72
2023/04/01 07:00:19;;;;;;;21.60;12.70;;;;;;;10.32;75.11;99821.81;107712;1251;108203;-69
2023/04/01 07:02:58;;;;;;;26.00;12.70;;;;;;;10.35;73.90;99820.25;107677;1251;96517;-71
2023/04/01 07:05:31;;;;;;;25.50;13.10;;;;;;;10.31;73.81;99819.71;107724;1250;96472;-70
2023/04/01 07:08:05;;;;;;;30.60;17.70;;;;;;;10.28;73.44;99818.49;107712;1251;109676;-72
2023/04/01 07:10:57;;;;;;;27.10;13.10;;;;;;;10.20;73.07;99816.95;107686;1257;108773;-71
2023/04/01 07:14:03;;;;;;;22.40;13.30;;;;;;;10.09;73.17;99814.73;107643;1251;108295;-72
2023/04/01 07:16:38;;;;;;;30.00;14.90;;;;;;;10.04;73.18;99812.30;107625;1250;96471;-72
2023/04/01 07:19:41;;;;;;;21.40;14.30;;;;;;;9.97;72.97;99809.27;107647;1251;96469;-71
2023/04/01 07:22:25;;;;;;;27.70;15.30;;;;;;;9.91;73.21;99811.07;107602;1251;109890;-72
2023/04/01 07:25:12;;;;;;;22.70;14.40;;;;;;;9.85;73.19;99810.81;107675;1251;110016;-72
2023/04/01 07:27:45;;;;;;;18.40;11.00;;;;;;;9.78;73.10;99812.90;107658;1251;108140;-71
2023/04/01 07:30:22;;;;;;;17.70;9.20;;;;;;;9.80;72.39;99814.91;107711;1251;96453;-71
2023/04/01 07:33:15;;;;;;;19.60;8.60;;;;;;;9.85;72.32;99809.58;107699;1252;96516;-72
2023/04/01 07:35:59;;;;;;;15.70;9.60;;;;;;;9.90;72.34;99811.42;107705;1251;110028;-72
2023/04/01 07:39:09;;;;;;;19.50;11.60;;;;;;;9.93;72.30;99806.59;107560;1257;108742;-70
2023/04/01 07:42:06;;;;;;;22.20;10.10;;;;;;;9.99;72.30;99805.80;107588;1256;108297;-71
2023/04/01 07:44:55;;;;;;;23.10;10.00;;;;;;;10.04;72.21;99804.82;107656;1251;97275;-72
2023/04/01 07:47:45;;;;;;;19.90;12.20;;;;;;;10.09;72.46;99804.65;107632;1250;96466;-70
2023/04/01 07:50:26;;;;;;;25.40;16.10;;;;;;;10.10;72.37;99809.94;107538;1250;109774;-70
2023/04/01 07:53:10;;;;;;;23.00;12.50;;;;;;;10.08;72.51;99800.26;107748;1257;109028;-71
2023/04/01 07:55:52;;;;;;;18.90;12.90;;;;;;;10.08;72.59;99802.67;107607;1253;108306;-71
2023/04/01 07:58:32;;;;;;;22.90;13.30;;;;;;;10.08;72.89;99797.39;106960;1253;903482;-72
2023/04/01 08:01:15;;;;;;;25.00;13.30;;;;;;;10.08;73.02;99808.67;107719;1251;96334;-70
2023/04/01 08:03:44;;;;;;;26.10;12.70;;;;;;;10.09;72.96;99799.81;107539;1251;111104;-71
2023/04/01 08:06:41;;;;;;;28.60;13.30;;;;;;;10.12;72.99;99799.30;107699;1251;109302;-72
2023/04/01 08:09:20;;;;;;;22.00;12.60;;;;;;;10.16;72.97;99797.14;107767;1251;108117;-72
2023/04/01 08:12:16;;;;;;;27.20;12.80;;;;;;;10.21;73.00;99792.30;107606;1253;96507;-75
2023/04/01 08:15:38;;;;;;;28.10;15.60;;;;;;;10.19;72.73;99791.45;107670;1251;96565;-69
2023/04/01 08:18:33;;;;;;;35.90;14.40;;;;;;;10.20;72.73;99793.71;107662;1251;109757;-72
2023/04/01 08:21:10;;;;;;;34.00;16.20;;;;;;;10.19;72.80;99793.94;107594;1251;109161;-72
2023/04/01 08:23:47;;;;;;;23.50;15.30;;;;;;;10.22;73.02;99792.82;107551;1251;107679;-69
2023/04/01 08:26:25;;;;;;;28.40;15.40;;;;;;;10.26;73.20;99792.58;107681;1251;96479;-74
2023/04/01 08:29:04;;;;;;;32.10;16.60;;;;;;;10.27;72.92;99789.05;107724;1256;96597;-72
2023/04/01 08:31:56;;;;;;;29.20;17.70;;;;;;;10.26;72.92;99781.93;107715;1251;109070;-73
2023/04/01 08:34:33;;;;;;;28.10;18.30;;;;;;;10.19;73.21;99778.22;107704;1251;109054;-73
2023/04/01 08:37:17;;;;;;;37.70;19.20;;;;;;;10.14;73.84;99770.81;107614;1251;108010;-74
2023/04/01 08:40:02;;;;;;;28.90;15.40;;;;;;;10.08;74.22;99766.83;107537;1251;96549;-71
2023/04/01 08:42:51;;;;;;;20.70;14.80;;;;;;;9.99;74.82;99769.48;107762;1251;96463;-72
2023/04/01 08:45:36;;;;;;;23.70;14.80;;;;;;;9.95;74.68;99773.66;107764;1249;109702;-72
2023/04/01 08:48:08;;;;;;;26.90;16.10;;;;;;;9.94;75.37;99776.01;107633;1251;110029;-72
2023/04/01 08:50:57;;;;;;;27.60;15.40;;;;;;;9.92;75.50;99772.27;107727;1251;107642;-72
2023/04/01 08:53:53;;;;;;;25.50;15.90;;;;;;;9.92;76.00;99769.43;107657;1251;96319;-71
2023/04/01 08:56:57;;;;;;;26.00;16.00;;;;;;;9.95;76.14;99773.85;107619;1251;96494;-72
2023/04/01 08:59:26;;;;;;;26.90;12.90;;;;;;;9.98;76.44;99775.14;107587;1250;109780;-72
2023/04/01 09:02:04;;;;;;;25.00;11.80;;;;;;;10.00;76.53;99769.15;107600;1251;109879;-71
2023/04/01 09:05:15;;;;;;;21.60;13.20;;;;;;;10.05;76.51;99763.55;107602;1251;108213;-71
2023/04/01 09:08:14;;;;;;;22.30;13.20;;;;;;;10.11;76.50;99758.19;107455;1251;96546;-73
2023/04/01 09:11:01;;;;;;;19.90;11.00;;;;;;;10.19;77.32;99753.25;107696;1251;96351;-69
2023/04/01 09:14:37;;;;;;;20.80;10.10;;;;;;;10.27;77.52;99747.08;107639;1251;110308;-70
2023/04/01 09:17:48;;;;;;;13.80;9.90;;;;;;;10.36;77.27;99737.23;107550;1251;110052;-68
2023/04/01 09:20:41;;;;;;;18.30;10.80;;;;;;;10.42;77.71;99748.58;107658;1251;108151;-72
2023/04/01 09:23:28;;;;;;;18.00;11.20;;;;;;;10.50;77.44;99744.92;107704;1251;96469;-68
2023/04/01 09:26:08;;;;;;;21.60;10.40;;;;;;;10.63;77.39;99743.19;107643;1251;96337;-70
2023/04/01 09:28:59;;;;;;;18.40;11.10;;;;;;;10.72;77.33;99747.16;107633;1250;109961;-69
2023/04/01 09:32:00;;;;;;;15.40;10.20;;;;;;;10.81;77.14;99754.55;107596;1250;108796;-71
2023/04/01 09:34:54;;;;;;;15.30;11.10;;;;;;;10.90;76.80;99754.14;107452;1251;109703;-69
2023/04/01 09:37:59;;;;;;;19.80;11.50;;;;;;;10.97;76.54;99742.52;107675;1251;97935;-69
2023/04/01 09:41:11;;;;;;;20.70;13.00;;;;;;;11.04;77.78;99747.29;107600;1251;97100;-70
2023/04/01 09:44:01;;;;;;;;;;;;;;;11.14;78.07;99746.41;107533;1250;110453;-69
2023/04/01 09:46:57;;;;;;;29.00;14.30;;;;;;;11.20;77.68;99745.48;107604;1251;109004;-70
2023/04/01 09:49:47;;;;;;;20.90;13.80;;;;;;;11.31;77.88;99741.20;107425;1251;107566;-70
2023/04/01 09:52:29;;;;;;;23.70;14.10;;;;;;;11.49;77.84;99734.81;107712;1251;96466;-70
2023/04/01 09:55:45;;;;;;;22.00;14.10;;;;;;;11.66;77.60;99727.87;107774;1250;96604;-69
2023/04/01 09:58:48;;;;;;;20.40;14.90;;;;;;;11.85;77.04;99728.15;107670;1251;109875;-70
2023/04/01 10:01:47;;;;;;;23.80;15.20;;;;;;;12.01;76.62;99727.28;107691;1250;109370;-69
2023/04/01 10:04:42;;;;;;;30.00;16.40;;;;;;;12.15;76.11;99723.91;107637;1251;108120;-70
2023/04/01 10:07:50;;;;;;;33.10;16.60;;;;;;;12.28;76.05;99717.68;107769;1251;96470;-68
2023/04/01 10:10:34;;;;;;;28.00;16.90;;;;;;;12.39;75.37;99709.79;107605;1250;96487;-69
2023/04/01 10:13:20;;;;;;;23.20;15.80;;;;;;;12.42;75.02;99705.33;107741;1251;110021;-70
2023/04/01 10:16:14;;;;;;;18.40;14.20;;;;;;;12.41;74.64;99709.72;107534;1253;108823;-69
2023/04/01 10:19:20;;;;;;;26.20;15.00;;;;;;;12.39;74.47;99709.24;107645;1251;108732;-70
2023/04/01 10:22:07;;;;;;;28.00;15.90;;;;;;;12.48;74.43;99711.30;107697;1251;96569;-71
2023/04/01 10:25:04;;;;;;;24.90;15.60;;;;;;;12.56;74.19;99708.95;107631;1251;97117;-70
2023/04/01 10:28:01;;;;;;;26.40;17.20;;;;;;;12.61;74.00;99709.83;107574;1251;109446;-70
2023/04/01 10:31:26;;;;;;;23.60;15.80;;;;;;;12.62;73.72;99711.89;107625;1251;109281;-70
2023/04/01 10:34:26;;;;;;;25.40;14.50;;;;;;;12.64;73.65;99711.30;107710;1251;107658;-68
2023/04/01 10:37:24;;;;;;;22.20;12.30;;;;;;;12.65;73.16;99706.34;107733;1251;96461;-69
2023/04/01 10:40:27;;;;;;;21.00;12.50;;;;;;;12.70;72.63;99700.18;107483;1251;96479;-70
2023/04/01 10:43:58;;;;;;;17.20;11.20;;;;;;;12.74;72.15;99697.80;107647;1251;110552;-74
2023/04/01 10:46:43;;;;;;;19.40;11.80;;;;;;;12.78;71.68;99701.55;107580;1251;109119;-72
2023/04/01 10:49:33;;;;;;;20.70;10.70;;;;;;;12.87;71.47;99697.66;107651;1251;108517;-73
2023/04/01 10:52:28;;;;;;;17.70;10.70;;;;;;;12.95;71.02;99696.23;107684;1251;96588;-73
2023/04/01 10:55:41;;;;;;;17.40;9.40;;;;;;;13.05;69.51;99699.45;107531;1251;97090;-73
2023/04/01 10:58:50;;;;;;;16.80;9.40;;;;;;;13.10;68.71;99696.14;107693;1251;110009;-73
2023/04/01 11:02:17;;;;;;;15.10;8.50;;;;;;;13.20;67.83;99693.48;107487;1254;109983;-75
2023/04/01 11:05:26;;;;;;;19.30;9.20;;;;;;;13.34;67.05;99688.64;107641;1251;108020;-74
2023/04/01 11:08:01;;;;;;;15.70;8.30;;;;;;;13.48;66.24;99687.27;107785;1250;96480;-72
2023/04/01 11:10:53;;;;;;;16.50;7.70;;;;;;;13.57;64.53;99684.90;107759;1250;96463;-74
2023/04/01 11:13:29;;;;;;;12.90;7.90;;;;;;;13.58;63.72;99675.94;107707;1251;110281;-70
2023/04/01 11:16:26;;;;;;;13.00;7.30;;;;;;;13.60;63.56;99671.36;107753;1255;108958;-73
2023/04/01 11:19:30;;;;;;;14.00;7.50;;;;;;;13.58;62.28;99661.84;107769;1250;107226;-75
2023/04/01 11:22:09;;;;;;;17.20;7.80;;;;;;;13.53;62.47;99666.15;107692;1250;96574;-73
2023/04/01 11:25:17;;;;;;;16.50;7.90;;;;;;;13.49;63.37;99662.77;107766;1254;96632;-72
2023/04/01 11:28:33;;;;;;;13.30;8.10;;;;;;;13.51;63.09;99655.39;107756;1250;110318;-72
2023/04/01 11:31:04;;;;;;;11.60;7.00;;;;;;;13.53;63.30;99653.32;107760;1256;109989;-73
2023/04/01 11:34:07;;;;;;;11.90;7.20;;;;;;;13.56;63.43;99648.43;107683;1250;107691;-72
2023/04/01 11:37:01;;;;;;;12.40;7.80;;;;;;;13.64;63.63;99649.97;107607;1251;96448;-73
2023/04/01 11:39:41;;;;;;;16.50;8.50;;;;;;;13.77;63.85;99638.02;107706;1251;97017;-70
2023/04/01 11:42:41;;;;;;;18.70;9.80;;;;;;;13.88;64.06;99631.11;107705;1251;111150;-70
2023/04/01 11:45:47;;;;;;;20.40;9.30;;;;;;;14.02;64.31;99630.14;107737;1250;109210;-69
2023/04/01 11:48:25;;;;;;;14.10;8.60;;;;;;;14.18;64.33;99629.11;107704;1250;107807;-71
2023/04/01 11:51:06;;;;;;;12.00;8.00;;;;;;;14.30;63.94;99633.13;107679;1253;96597;-70
2023/04/01 11:53:54;;;;;;;13.40;7.80;;;;;;;14.39;63.97;99631.38;107660;1249;96474;-68
2023/04/01 11:56:41;;;;;;;15.40;8.00;;;;;;;14.48;63.79;99633.59;107715;1251;109853;-70
2023/04/01 11:59:09;;;;;;;9.90;7.60;;;;;;;14.49;62.91;99630.02;107713;1251;109576;-69
2023/04/01 12:01:38;;;;;;;12.30;7.90;;;;;;;14.49;63.05;99627.28;107706;1249;108693;-71
2023/04/01 12:04:16;;;;;;;11.00;7.90;;;;;;;14.49;62.75;99628.64;107694;1251;96479;-70
2023/04/01 12:07:25;;;;;;;12.30;7.20;;;;;;;14.44;62.48;99626.34;107706;1249;97032;-72
2023/04/01 12:10:10;;;;;;;19.00;8.70;;;;;;;14.39;61.88;99631.20;107628;1251;110602;-69
2023/04/01 12:12:48;;;;;;;17.40;8.50;;;;;;;14.37;61.78;99630.09;107716;1249;109495;-69
2023/04/01 12:15:38;;;;;;;18.60;12.90;;;;;;;14.33;61.24;99630.92;107907;1248;108416;-69